createdAt,value
2022-08-29T00:01:30.975Z,95534.28
2022-08-29T00:04:17.039Z,95536.19
2022-08-29T00:07:03.085Z,95558.06
2022-08-29T00:09:49.365Z,95566.56
2022-08-29T00:12:35.810Z,95553.44
2022-08-29T00:15:22.398Z,95573.38
2022-08-29T00:18:08.883Z,95575.59
2022-08-29T00:20:55.261Z,95558.09
2022-08-29T00:23:41.399Z,95579.16
2022-08-29T00:26:27.543Z,95567.41
2022-08-29T00:29:17.641Z,95565.22
2022-08-29T00:32:04.183Z,95554.28
2022-08-29T00:34:50.543Z,95546.91
2022-08-29T00:37:37.369Z,95548.00
2022-08-29T00:40:36.958Z,95537.28
2022-08-29T00:43:29.055Z,95555.91
2022-08-29T00:46:43.502Z,95550.13
2022-08-29T00:49:42.077Z,95550.69
2022-08-29T00:52:39.423Z,95552.88
2022-08-29T00:55:29.361Z,95549.06
2022-08-29T00:58:25.740Z,95552.31
2022-08-29T01:01:11.760Z,95552.03
2022-08-29T01:03:58.449Z,95546.03
2022-08-29T01:06:45.054Z,95557.22
2022-08-29T01:09:31.417Z,95559.44
2022-08-29T01:12:17.396Z,95563.78
2022-08-29T01:15:07.712Z,95562.16
2022-08-29T01:17:55.016Z,95559.94
2022-08-29T01:20:57.708Z,95550.91
2022-08-29T01:23:46.531Z,95572.78
2022-08-29T01:26:33.622Z,95571.41
2022-08-29T01:29:19.373Z,95546.25
2022-08-29T01:32:06.025Z,95568.41
2022-08-29T01:34:53.156Z,95564.03
2022-08-29T01:37:43.410Z,95567.84
2022-08-29T01:40:30.240Z,95549.25
2022-08-29T01:43:16.271Z,95550.34
2022-08-29T01:46:02.366Z,95537.72
2022-08-29T01:48:48.528Z,95549.50
2022-08-29T01:51:35.319Z,95572.75
2022-08-29T01:54:21.436Z,95561.78
2022-08-29T01:57:12.287Z,95565.28
2022-08-29T01:59:59.682Z,95589.34
2022-08-29T02:02:46.081Z,95592.38
2022-08-29T02:05:32.174Z,95594.00
2022-08-29T02:08:20.186Z,95590.72
2022-08-29T02:11:10.083Z,95586.56
2022-08-29T02:13:59.394Z,95590.41
2022-08-29T02:16:45.318Z,95579.19
2022-08-29T02:19:35.678Z,95569.06
2022-08-29T02:22:21.677Z,95580.25
2022-08-29T02:25:29.610Z,95585.44
2022-08-29T02:28:18.417Z,95566.00
2022-08-29T02:31:05.661Z,95585.44
2022-08-29T02:33:52.664Z,95589.25
2022-08-29T02:36:39.187Z,95595.00
2022-08-29T02:39:27.829Z,95579.91
2022-08-29T02:42:13.674Z,95594.13
2022-08-29T02:45:01.250Z,95593.06
2022-08-29T02:47:47.741Z,95589.22
2022-08-29T02:50:34.378Z,95551.16
2022-08-29T02:53:24.381Z,95596.31
2022-08-29T02:56:10.237Z,95591.09
2022-08-29T02:59:01.289Z,95597.91
2022-08-29T03:01:47.603Z,95591.78
2022-08-29T03:04:33.687Z,95598.38
2022-08-29T03:07:19.743Z,95604.66
2022-08-29T03:10:07.519Z,95594.03
2022-08-29T03:12:53.318Z,95613.13
2022-08-29T03:15:40.360Z,95600.84
2022-08-29T03:18:26.452Z,95599.72
2022-08-29T03:21:17.974Z,95616.13
2022-08-29T03:24:04.249Z,95616.97
2022-08-29T03:26:56.295Z,95608.16
2022-08-29T03:29:43.241Z,95625.97
2022-08-29T03:32:29.743Z,95638.28
2022-08-29T03:35:18.116Z,95621.84
2022-08-29T03:38:04.415Z,95640.47
2022-08-29T03:40:50.264Z,95619.94
2022-08-29T03:43:36.134Z,95627.59
2022-08-29T03:46:25.767Z,95643.47
2022-08-29T03:49:12.031Z,95629.81
2022-08-29T03:51:58.488Z,95635.28
2022-08-29T03:54:44.443Z,95628.72
2022-08-29T03:57:33.189Z,95645.41
2022-08-29T04:00:20.061Z,95649.56
2022-08-29T04:03:06.381Z,95661.53
2022-08-29T04:05:53.153Z,95648.44
2022-08-29T04:08:43.128Z,95645.13
2022-08-29T04:11:29.909Z,95627.59
2022-08-29T04:14:15.724Z,95641.28
2022-08-29T04:17:01.829Z,95649.56
2022-08-29T04:19:47.925Z,95664.84
2022-08-29T04:22:36.085Z,95659.09
2022-08-29T04:25:25.082Z,95659.09
2022-08-29T04:28:12.696Z,95663.44
2022-08-29T04:30:58.636Z,95625.94
2022-08-29T04:33:44.684Z,95659.63
2022-08-29T04:36:30.567Z,95673.56
2022-08-29T04:39:16.690Z,95674.66
2022-08-29T04:42:02.663Z,95668.91
2022-08-29T04:44:48.717Z,95665.94
2022-08-29T04:47:35.785Z,95651.97
2022-08-29T04:50:23.125Z,95680.13
2022-08-29T04:53:14.018Z,95675.19
2022-08-29T04:56:02.421Z,95676.00
2022-08-29T04:58:50.691Z,95687.50
2022-08-29T05:01:36.822Z,95669.97
2022-08-29T05:04:22.866Z,95677.63
2022-08-29T05:07:09.209Z,95672.97
2022-08-29T05:10:06.785Z,95671.28
2022-08-29T05:12:52.837Z,95679.78
2022-08-29T05:15:39.346Z,95667.50
2022-08-29T05:18:25.530Z,95689.94
2022-08-29T05:21:12.436Z,95689.66
2022-08-29T05:23:59.012Z,95693.22
2022-08-29T05:26:45.643Z,95697.03
2022-08-29T05:29:31.697Z,95697.03
2022-08-29T05:32:19.653Z,95696.50
2022-08-29T05:35:06.082Z,95692.13
2022-08-29T05:37:52.211Z,95695.41
2022-08-29T05:40:38.560Z,95678.97
2022-08-29T05:43:24.874Z,95689.63
2022-08-29T05:46:11.435Z,95685.84
2022-08-29T05:48:58.385Z,95702.81
2022-08-29T05:51:44.658Z,95697.09
2022-08-29T05:54:33.492Z,95697.63
2022-08-29T05:57:21.447Z,95672.75
2022-08-29T06:00:09.499Z,95702.63
2022-08-29T06:02:58.708Z,95702.06
2022-08-29T06:05:51.102Z,95699.94
2022-08-29T06:08:36.985Z,95703.81
2022-08-29T06:11:26.418Z,95711.75
2022-08-29T06:14:14.166Z,95718.88
2022-08-29T06:17:00.692Z,95710.16
2022-08-29T06:19:50.586Z,95710.72
2022-08-29T06:22:40.476Z,95717.31
2022-08-29T06:25:40.066Z,95711.00
2022-08-29T06:28:31.386Z,95719.81
2022-08-29T06:31:29.329Z,95717.59
2022-08-29T06:34:15.416Z,95713.00
2022-08-29T06:37:01.408Z,95717.66
2022-08-29T13:50:22.758Z,95569.34
2022-08-29T13:53:09.185Z,95563.22
2022-08-29T13:55:55.274Z,95555.50
2022-08-29T13:58:41.147Z,95591.97
2022-08-29T14:01:30.830Z,95602.22
2022-08-29T14:04:38.871Z,95655.97
2022-08-29T14:07:28.895Z,95656.53
2022-08-29T14:10:17.298Z,95662.00
2022-08-29T14:13:03.735Z,95685.00
2022-08-29T14:15:49.895Z,95695.94
2022-08-29T14:18:36.722Z,95684.16
2022-08-29T14:21:22.493Z,95678.38
2022-08-29T14:24:08.487Z,95681.97
2022-08-29T14:26:55.680Z,95661.47
2022-08-29T14:29:48.989Z,95665.88
2022-08-29T14:32:35.423Z,95664.25
2022-08-29T14:35:26.423Z,95637.66
2022-08-29T14:38:18.056Z,95654.66
2022-08-29T14:41:04.506Z,95674.06
2022-08-29T14:43:50.752Z,95692.13
2022-08-29T14:46:36.893Z,95740.00
2022-08-29T14:49:23.930Z,95814.44
2022-08-29T14:52:14.875Z,95865.38
2022-08-29T14:55:01.058Z,95890.31
2022-08-29T14:57:48.201Z,95854.31
2022-08-29T15:00:34.626Z,95853.53
2022-08-29T15:03:20.748Z,95831.50
2022-08-29T15:06:06.958Z,95799.94
2022-08-29T15:08:53.381Z,95782.53
2022-08-29T15:11:39.482Z,95759.88
2022-08-29T15:14:26.941Z,95770.28
2022-08-29T15:17:13.634Z,95775.47
2022-08-29T15:23:07.007Z,95754.75
2022-08-29T15:25:53.663Z,95738.34
2022-08-29T15:28:39.950Z,95700.84
2022-08-29T15:31:26.148Z,95691.00
2022-08-29T15:34:12.063Z,95663.09
2022-08-29T15:36:59.184Z,95667.22
2022-08-29T15:39:45.168Z,95659.53
2022-08-29T15:42:33.249Z,95657.38
2022-08-29T15:45:22.593Z,95677.00
2022-08-29T15:48:11.668Z,95690.31
2022-08-29T15:50:57.395Z,95730.63
2022-08-29T15:53:43.296Z,95671.53
2022-08-29T15:56:35.756Z,95703.34
2022-08-29T15:59:41.206Z,95719.09
2022-08-29T17:13:22.744Z,95769.16
2022-08-29T17:16:10.093Z,95776.88
2022-08-29T17:18:55.978Z,95779.97
2022-08-29T17:21:42.813Z,95759.38
2022-08-29T17:24:29.040Z,95770.06
2022-08-29T17:27:20.709Z,95760.38
2022-08-29T17:30:07.887Z,95759.22
2022-08-29T17:32:53.895Z,95757.91
2022-08-29T17:35:39.856Z,95760.75
2022-08-29T17:38:26.750Z,95765.75
2022-08-29T17:41:17.364Z,95758.66
2022-08-29T17:44:05.707Z,95753.78
2022-08-29T17:46:52.085Z,95755.19
2022-08-29T17:49:38.310Z,95747.31
2022-08-29T17:52:24.598Z,95741.34
2022-08-29T17:55:10.933Z,95762.69
2022-08-29T17:57:58.014Z,95755.63
2022-08-29T18:00:44.277Z,95757.22
2022-08-29T18:03:30.122Z,95750.69
2022-08-29T18:06:16.174Z,95740.88
2022-08-29T18:09:02.513Z,95747.44
2022-08-29T18:11:50.430Z,95747.75
2022-08-29T18:14:44.788Z,95745.38
2022-08-29T18:17:32.254Z,95743.84
2022-08-29T18:20:21.607Z,95747.97
2022-08-29T18:23:08.378Z,95750.06
2022-08-29T18:25:54.150Z,95741.06
2022-08-29T18:28:41.116Z,95737.69
2022-08-29T18:31:29.159Z,95740.78
2022-08-29T18:34:15.722Z,95730.69
2022-08-29T18:37:02.189Z,95718.34
2022-08-29T18:39:48.142Z,95713.66
2022-08-29T18:42:41.707Z,95694.56
2022-08-29T18:45:28.536Z,95710.94
2022-08-29T18:48:14.917Z,95718.88
2022-08-29T18:51:01.335Z,95719.44
2022-08-29T18:53:48.073Z,95712.84
2022-08-29T18:56:34.161Z,95686.63
2022-08-29T18:59:20.615Z,95712.84
2022-08-29T19:02:11.829Z,95716.69
2022-08-29T19:04:58.175Z,95722.16
2022-08-29T19:07:46.355Z,95719.44
2022-08-29T19:10:32.416Z,95717.84
2022-08-29T19:13:18.745Z,95717.25
2022-08-29T19:16:07.373Z,95714.66
2022-08-29T19:18:54.085Z,95727.06
2022-08-29T19:21:41.180Z,95736.38
2022-08-29T19:24:28.457Z,95739.41
2022-08-29T19:27:39.745Z,95744.59
2022-08-29T19:30:21.855Z,95727.88
2022-08-29T19:33:09.805Z,95738.72
2022-08-29T19:35:56.283Z,95723.25
2022-08-29T19:38:42.612Z,95738.94
2022-08-29T19:41:28.767Z,95739.25
2022-08-29T19:44:14.777Z,95734.84
2022-08-29T19:47:00.826Z,95737.28
2022-08-29T19:49:49.097Z,95748.88
2022-08-29T19:52:36.050Z,95739.50
2022-08-29T19:55:23.075Z,95731.84
2022-08-29T19:58:10.821Z,95756.28
2022-08-29T20:00:57.701Z,95759.25
2022-08-29T20:03:43.531Z,95753.50
2022-08-29T20:06:29.483Z,95766.59
2022-08-29T20:09:15.707Z,95770.75
2022-08-29T20:12:03.179Z,95780.31
2022-08-29T20:14:52.392Z,95769.56
2022-08-29T20:17:39.444Z,95771.78
2022-08-29T20:20:31.502Z,95774.75
2022-08-29T20:23:17.671Z,95784.81
2022-08-29T20:26:04.113Z,95776.34
2022-08-29T20:28:52.170Z,95769.81
2022-08-29T20:31:38.316Z,95778.09
2022-08-29T20:34:28.421Z,95783.56
2022-08-29T20:37:16.254Z,95780.28
2022-08-29T20:40:02.757Z,95774.56
2022-08-29T20:42:49.621Z,95778.69
2022-08-29T20:45:41.229Z,95765.28
2022-08-29T20:48:31.320Z,95765.75
2022-08-29T20:51:17.738Z,95760.34
2022-08-29T20:54:04.369Z,95766.50
2022-08-29T20:56:50.621Z,95757.00
2022-08-29T20:59:39.434Z,95777.09
2022-08-29T21:02:43.777Z,95776.38
2022-08-29T21:05:41.124Z,95773.06
2022-08-29T21:08:27.935Z,95766.50
2022-08-29T21:11:15.666Z,95765.47
2022-08-29T21:14:02.026Z,95761.28
2022-08-29T21:16:49.685Z,95768.16
2022-08-29T21:19:35.731Z,95769.00
2022-08-29T21:22:25.018Z,95768.22
2022-08-29T21:25:11.733Z,95755.97
2022-08-29T21:27:57.738Z,95769.97
2022-08-29T21:30:46.287Z,95780.47
2022-08-29T21:33:33.532Z,95775.25
2022-08-29T21:36:22.751Z,95773.59
2022-08-29T21:39:10.284Z,95768.16
2022-08-29T21:41:57.235Z,95786.75
2022-08-29T21:44:43.450Z,95765.44
2022-08-29T21:47:32.426Z,95766.81
2022-08-29T21:50:18.892Z,95769.28
2022-08-29T21:53:05.562Z,95772.31
2022-08-29T21:55:51.482Z,95765.97
2022-08-29T21:58:37.228Z,95758.91
2022-08-29T22:01:27.868Z,95752.25
2022-08-29T22:04:19.232Z,95765.97
2022-08-29T22:07:16.155Z,95752.31
2022-08-29T22:10:02.776Z,95762.72
2022-08-29T22:12:48.787Z,95746.34
2022-08-29T22:15:53.675Z,95750.66
2022-08-29T22:18:39.569Z,95739.59
2022-08-29T22:21:26.363Z,95766.44
2022-08-29T22:24:14.225Z,95766.44
2022-08-29T22:27:00.346Z,95753.00
2022-08-29T22:29:46.232Z,95742.31
2022-08-29T22:32:35.517Z,95755.19
2022-08-29T22:35:22.292Z,95759.28
2022-08-29T22:38:08.170Z,95754.91
2022-08-29T22:40:54.129Z,95764.47
2022-08-29T22:43:40.328Z,95753.34
2022-08-29T22:46:27.090Z,95753.00
2022-08-29T22:49:13.151Z,95750.50
2022-08-29T22:51:59.147Z,95746.47
2022-08-29T22:54:45.280Z,95747.50
2022-08-29T22:57:31.417Z,95753.84
2022-08-29T23:00:21.761Z,95750.03
2022-08-29T23:03:08.044Z,95724.25
2022-08-29T23:05:54.191Z,95738.50
2022-08-29T23:08:40.327Z,95739.53
2022-08-29T23:11:28.026Z,95745.97
2022-08-29T23:14:14.390Z,95736.13
2022-08-29T23:17:01.003Z,95724.63
2022-08-29T23:19:46.921Z,95734.50
2022-08-29T23:22:35.871Z,95730.13
2022-08-29T23:25:21.799Z,95717.56
2022-08-29T23:28:07.857Z,95718.97
2022-08-29T23:30:53.892Z,95719.25
2022-08-29T23:33:39.626Z,95708.28
2022-08-29T23:36:25.595Z,95699.09
2022-08-29T23:39:11.696Z,95702.00
2022-08-29T23:41:57.741Z,95695.00
2022-08-29T23:44:43.584Z,95703.44
2022-08-29T23:47:29.411Z,95700.94
2022-08-29T23:50:15.824Z,95713.53
2022-08-29T23:53:01.780Z,95718.41
2022-08-29T23:55:48.125Z,95714.53
2022-08-29T23:58:33.962Z,95718.34
